Powell, Ohio
Current Conditions -  °F | °C
As of 5:53 AM on Saturday 20 Dec 2014 (Local Time) from KOSU Reporting Station
Overcast Overcast  
Wind Chill: 29°   Ceiling: 1600
Heat Index: 29°   Visibility: 8mi
Dew Point: 23°   Wind: 3mph
Humidity: 78%   Direction: 30°NNE
Pressure: 30.26"   Gusts: NA
Location:  40.16°N, 83.08°W
Report Text: KOSU 201053Z AUTO 03003KT 8SM OVC016 M02/M05 A3026 RMK AO2 SLP256 T10171050
Loading
Personal Weather Stations






























Interactive Weather Map New forecast layout! Learn more

10-Day Weather Forecast

Advertisements
Track Severe Weather on mobile